Time;durP1;ratioP1;P1;durP2;ratioP2;P2;SDS_P1;SDS_P2;PMS_P1;PMS_P2;Temp;Humidity;BMP_temperature;BMP_pressure;BME280_temperature;BME280_humidity;BME280_pressure;Samples;Min_cycle;Max_cycle;Signal;HPM_P1;HPM_P2
2022/04/01 00:00:30;;;;;;;8.15;2.65;;;;;;;0.06;86.17;99826.56;6030017;28;20037;-70
2022/04/01 00:03:26;;;;;;;4.30;1.88;;;;;;;0.10;87.01;99828.06;6011845;28;20489;-71
2022/04/01 00:06:21;;;;;;;5.22;2.25;;;;;;;-0.03;87.34;99830.66;6011392;28;20425;-70
2022/04/01 00:09:16;;;;;;;4.27;1.90;;;;;;;-0.09;87.54;99831.88;6025810;28;20535;-70
2022/04/01 00:12:12;;;;;;;6.50;2.20;;;;;;;-0.11;88.18;99838.13;6027552;28;20034;-71
2022/04/01 00:15:09;;;;;;;5.28;2.05;;;;;;;-0.08;88.71;99837.91;6052444;28;20260;-71
2022/04/01 00:18:04;;;;;;;6.03;2.28;;;;;;;-0.10;88.86;99845.84;6029390;28;20018;-71
2022/04/01 00:21:00;;;;;;;7.97;2.45;;;;;;;-0.18;88.38;99844.66;6028759;28;20072;-71
2022/04/01 00:23:55;;;;;;;7.60;2.58;;;;;;;-0.18;89.06;99842.06;6028710;28;20035;-70
2022/04/01 00:26:50;;;;;;;6.27;2.13;;;;;;;-0.25;89.59;99831.22;6026660;28;20046;-70
2022/04/01 00:29:48;;;;;;;6.70;2.53;;;;;;;-0.19;89.41;99836.00;6027284;28;20088;-71
2022/04/01 00:32:43;;;;;;;6.03;2.90;;;;;;;-0.21;89.79;99843.09;6027866;28;20042;-70
2022/04/01 00:35:39;;;;;;;8.43;2.87;;;;;;;-0.21;89.81;99839.66;6023662;28;20046;-70
2022/04/01 00:38:34;;;;;;;10.00;2.80;;;;;;;-0.20;90.16;99843.94;6021265;28;20426;-71
2022/04/01 00:41:29;;;;;;;8.87;3.23;;;;;;;-0.25;90.49;99844.25;6013746;28;20039;-71
2022/04/01 00:44:27;;;;;;;8.27;3.53;;;;;;;-0.28;90.45;99831.41;6022693;28;20425;-72
2022/04/01 00:47:22;;;;;;;8.43;3.03;;;;;;;-0.38;90.11;99832.94;6028086;28;20290;-71
2022/04/01 00:50:18;;;;;;;9.47;3.63;;;;;;;-0.38;90.72;99839.94;6024328;28;20049;-71
2022/04/01 00:53:13;;;;;;;10.23;2.75;;;;;;;-0.42;91.29;99841.03;6024623;28;20030;-72
2022/04/01 00:56:09;;;;;;;5.80;2.90;;;;;;;-0.48;91.08;99847.47;6017390;28;20088;-72
2022/04/01 00:59:06;;;;;;;7.63;3.13;;;;;;;-0.46;91.75;99850.00;6029720;28;20112;-72
2022/04/01 01:02:01;;;;;;;8.80;3.85;;;;;;;-0.53;92.01;99852.16;6026396;28;20289;-71
2022/04/01 01:04:56;;;;;;;8.52;3.08;;;;;;;-0.50;92.09;99851.13;6015986;28;20069;-71
2022/04/01 01:07:52;;;;;;;6.63;3.07;;;;;;;-0.50;92.59;99836.34;6022085;28;20379;-72
2022/04/01 01:10:47;;;;;;;9.07;2.97;;;;;;;-0.43;92.46;99855.00;6027700;28;20274;-71
2022/04/01 01:13:43;;;;;;;11.05;3.08;;;;;;;-0.50;92.67;99841.53;6019743;28;20034;-72
2022/04/01 01:16:44;;;;;;;8.03;3.87;;;;;;;-0.62;92.56;99850.97;6050979;28;20529;-72
2022/04/01 01:19:40;;;;;;;;;;;;;;;-0.61;93.05;99844.84;6037343;28;20486;-73
2022/04/01 01:22:35;;;;;;;6.57;2.28;;;;;;;-0.60;92.82;99848.28;6024397;28;19921;-72
2022/04/01 01:25:31;;;;;;;9.97;4.17;;;;;;;-0.63;93.15;99838.91;6023825;28;20147;-72
2022/04/01 01:28:27;;;;;;;6.72;3.03;;;;;;;-0.60;93.16;99833.47;6019818;28;20034;-72
2022/04/01 01:31:23;;;;;;;8.07;3.20;;;;;;;-0.64;93.53;99841.56;6025778;28;20057;-71
2022/04/01 01:34:20;;;;;;;9.57;4.13;;;;;;;-0.64;93.20;99834.63;6017460;28;20089;-72
2022/04/01 01:37:15;;;;;;;8.10;3.13;;;;;;;-0.63;94.03;99835.47;6023378;28;20026;-71
2022/04/01 01:40:11;;;;;;;11.27;4.43;;;;;;;-0.69;93.04;99838.44;6021090;28;20038;-72
2022/04/01 01:43:06;;;;;;;9.25;4.20;;;;;;;-0.69;93.20;99835.84;6018189;28;20045;-71
2022/04/01 01:46:02;;;;;;;8.65;4.10;;;;;;;-0.64;93.25;99844.19;6020215;28;20035;-72
2022/04/01 01:48:57;;;;;;;12.37;4.57;;;;;;;-0.72;93.34;99834.25;6021219;28;20034;-71
2022/04/01 01:55:06;;;;;;;11.10;4.03;;;;;;;-0.69;93.90;99836.69;6027432;28;20034;-72
2022/04/01 01:58:03;;;;;;;8.48;4.13;;;;;;;-0.63;93.66;99841.50;6023014;28;20030;-72
2022/04/01 02:00:58;;;;;;;13.38;4.82;;;;;;;-0.68;93.89;99853.13;6023770;28;20097;-71
2022/04/01 02:03:54;;;;;;;11.00;4.80;;;;;;;-0.71;94.10;99842.91;6016925;28;20042;-71
2022/04/01 02:06:49;;;;;;;7.50;4.17;;;;;;;-0.75;93.88;99849.22;6017387;28;20485;-72
2022/04/01 02:09:46;;;;;;;10.00;4.50;;;;;;;-0.66;93.80;99841.69;6019293;28;20532;-71
2022/04/01 02:12:43;;;;;;;9.85;4.15;;;;;;;-0.69;93.83;99856.66;6009984;28;20109;-71
2022/04/01 02:15:38;;;;;;;7.55;3.92;;;;;;;-0.73;93.84;99849.97;6027325;28;20462;-71
2022/04/01 02:18:34;;;;;;;8.83;4.63;;;;;;;-0.79;94.18;99847.75;6016276;28;20042;-70
2022/04/01 02:21:29;;;;;;;8.13;4.10;;;;;;;-0.73;94.15;99865.56;6017783;28;20035;-71
2022/04/01 02:24:25;;;;;;;7.45;3.95;;;;;;;-0.74;93.83;99854.34;6017557;28;20413;-71
2022/04/01 02:27:20;;;;;;;8.30;3.65;;;;;;;-0.74;94.18;99858.72;6025994;28;20046;-71
2022/04/01 02:30:16;;;;;;;12.15;4.57;;;;;;;-0.77;94.35;99858.91;6017036;28;20042;-71
2022/04/01 02:33:11;;;;;;;10.03;5.60;;;;;;;-0.82;94.37;99863.56;6025487;28;20433;-71
2022/04/01 02:36:10;;;;;;;12.83;5.90;;;;;;;-0.83;94.47;99851.47;6020275;28;20022;-70
2022/04/01 02:39:06;;;;;;;10.82;4.82;;;;;;;-0.80;94.63;99869.50;6014778;28;20038;-70
2022/04/01 02:42:01;;;;;;;13.55;5.95;;;;;;;-0.81;94.95;99865.22;6020157;28;20034;-71
2022/04/01 02:44:56;;;;;;;11.50;5.90;;;;;;;-0.83;94.62;99864.47;6024530;28;20525;-70
2022/04/01 02:47:52;;;;;;;13.10;5.23;;;;;;;-0.81;94.60;99870.41;6027255;28;20023;-70
2022/04/01 02:50:48;;;;;;;12.93;5.53;;;;;;;-0.77;94.90;99877.13;6012896;28;20499;-70
2022/04/01 02:53:43;;;;;;;9.43;4.70;;;;;;;-0.82;94.56;99872.22;6024589;28;20042;-70
2022/04/01 02:56:40;;;;;;;10.13;4.70;;;;;;;-0.80;94.94;99882.50;6018812;28;20048;-70
2022/04/01 02:59:36;;;;;;;13.35;5.47;;;;;;;-0.83;94.86;99882.69;6036952;28;20040;-71
2022/04/01 03:02:32;;;;;;;12.05;5.30;;;;;;;-0.83;94.77;99880.94;6023679;28;20092;-70
2022/04/01 03:05:28;;;;;;;11.33;4.27;;;;;;;-0.88;94.83;99887.34;6018628;28;20035;-71
2022/04/01 03:08:24;;;;;;;9.85;4.72;;;;;;;-0.80;94.92;99890.31;6015765;28;20102;-70
2022/04/01 03:11:20;;;;;;;12.98;4.40;;;;;;;-0.84;95.11;99894.03;6024407;28;20046;-71
2022/04/01 03:14:15;;;;;;;9.63;4.77;;;;;;;-0.84;95.06;99894.03;6026257;28;20106;-70
2022/04/01 03:17:10;;;;;;;15.73;6.13;;;;;;;-0.83;94.59;99891.34;6026501;28;20027;-70
2022/04/01 03:20:12;;;;;;;10.83;4.67;;;;;;;-0.84;94.95;99894.88;6013989;28;20035;-71
2022/04/01 03:23:07;;;;;;;16.25;4.90;;;;;;;-0.81;94.70;99899.88;6018061;28;20029;-70
2022/04/01 03:26:03;;;;;;;13.73;5.23;;;;;;;-0.86;95.07;99895.91;6029084;28;20397;-70
2022/04/01 03:28:59;;;;;;;9.30;4.88;;;;;;;-0.88;95.02;99893.41;6042939;28;20393;-70
2022/04/01 03:31:55;;;;;;;15.68;5.35;;;;;;;-0.85;95.31;99895.81;6046084;28;20115;-70
2022/04/01 03:34:50;;;;;;;7.73;4.37;;;;;;;-0.76;94.91;99891.81;6014313;28;20051;-71
2022/04/01 03:37:46;;;;;;;8.53;4.27;;;;;;;-0.80;94.85;99896.38;6021905;28;20042;-70
2022/04/01 03:40:41;;;;;;;10.98;4.50;;;;;;;-0.81;94.91;99899.03;6043736;28;20273;-70
2022/04/01 03:43:37;;;;;;;10.85;3.50;;;;;;;-0.81;94.99;99901.66;6025644;28;20044;-70
2022/04/01 03:47:03;;;;;;;13.02;4.25;;;;;;;-0.77;95.57;99905.75;6026142;28;20530;-70
2022/04/01 03:50:00;;;;;;;13.35;4.10;;;;;;;-0.84;94.89;99904.44;6017274;28;20551;-70
2022/04/01 03:53:01;;;;;;;7.47;4.10;;;;;;;-0.81;94.96;99904.25;6021418;28;20384;-70
2022/04/01 03:55:58;;;;;;;9.05;3.92;;;;;;;-0.96;95.02;99907.81;6016546;28;20038;-71
2022/04/01 03:59:02;;;;;;;10.50;4.43;;;;;;;-1.08;94.45;99905.94;6028548;28;20033;-70
2022/04/01 04:01:58;;;;;;;11.93;5.53;;;;;;;-1.07;94.36;99920.63;6020870;28;20459;-70
2022/04/01 04:04:54;;;;;;;11.40;4.95;;;;;;;-1.12;94.55;99910.50;6022664;28;20485;-70
2022/04/01 04:07:51;;;;;;;6.85;3.63;;;;;;;-1.07;94.50;99910.22;6017209;28;20074;-70
2022/04/01 04:10:48;;;;;;;10.18;3.60;;;;;;;-1.10;94.44;99915.59;6007857;28;20113;-69
2022/04/01 04:13:45;;;;;;;12.10;5.50;;;;;;;-1.08;94.23;99917.19;6024554;28;20097;-69
2022/04/01 04:16:46;;;;;;;11.13;4.50;;;;;;;-1.13;94.45;99916.63;6024339;28;20481;-69
2022/04/01 04:20:02;;;;;;;8.88;3.85;;;;;;;-0.94;94.42;99917.19;6012679;28;20478;-69
2022/04/01 04:23:10;;;;;;;11.63;4.65;;;;;;;-0.91;94.07;99913.56;6021209;28;20038;-69
2022/04/01 04:26:12;;;;;;;7.82;3.72;;;;;;;-0.84;94.35;99914.84;6015231;28;20109;-69
2022/04/01 04:29:15;;;;;;;10.48;4.22;;;;;;;-0.96;93.90;99915.59;6022849;28;20073;-69
2022/04/01 04:32:19;;;;;;;9.27;3.72;;;;;;;-0.93;94.19;99926.66;6016341;28;20084;-69
2022/04/01 04:35:16;;;;;;;8.60;3.45;;;;;;;-0.92;94.35;99922.28;6011185;28;20092;-69
2022/04/01 04:38:12;;;;;;;9.00;3.83;;;;;;;-0.92;94.42;99927.47;6012274;28;20541;-69
2022/04/01 04:41:10;;;;;;;7.88;3.50;;;;;;;-0.90;94.05;99936.06;6026976;28;20106;-70
2022/04/01 04:44:06;;;;;;;9.55;3.83;;;;;;;-1.04;93.95;99928.25;6018512;28;20077;-69
2022/04/01 04:47:05;;;;;;;8.85;3.80;;;;;;;-1.08;93.93;99927.59;6028243;28;20034;-70
2022/04/01 04:50:01;;;;;;;8.88;3.30;;;;;;;-0.99;94.03;99940.03;6010366;28;20030;-70
2022/04/01 04:52:57;;;;;;;7.85;3.50;;;;;;;-0.99;94.07;99944.41;6026640;28;20068;-69
2022/04/01 04:55:53;;;;;;;8.90;3.45;;;;;;;-1.12;93.97;99940.88;6028711;28;20478;-69
2022/04/01 04:58:49;;;;;;;11.10;4.13;;;;;;;-1.07;94.05;99946.63;6026049;28;20030;-69
2022/04/01 05:02:06;;;;;;;12.82;3.92;;;;;;;-1.07;93.99;99954.44;6010928;28;20027;-69
2022/04/01 05:05:04;;;;;;;7.68;3.00;;;;;;;-0.99;94.09;99958.25;6029051;28;20041;-69
2022/04/01 05:08:14;;;;;;;8.95;3.10;;;;;;;-1.15;93.96;99957.50;6036397;28;20571;-69
2022/04/01 05:11:26;;;;;;;9.40;3.72;;;;;;;-1.09;93.77;99966.69;6026891;28;20037;-68
2022/04/01 05:14:44;;;;;;;10.10;4.93;;;;;;;-1.11;93.83;99968.56;6025265;28;20045;-69
2022/04/01 05:18:05;;;;;;;10.07;4.00;;;;;;;-1.02;94.04;99968.84;6035422;28;20030;-69
2022/04/01 05:21:02;;;;;;;7.75;2.83;;;;;;;-1.12;93.44;99977.28;6018365;28;20470;-68
2022/04/01 05:24:01;;;;;;;7.88;3.03;;;;;;;-1.18;93.33;99978.47;6020138;28;20045;-68
2022/04/01 05:27:00;;;;;;;7.35;3.03;;;;;;;-1.10;93.27;99981.47;6026945;28;20088;-69
2022/04/01 05:30:20;;;;;;;6.50;2.78;;;;;;;-1.16;93.00;99975.78;6027387;28;20030;-69
2022/04/01 05:33:16;;;;;;;9.45;3.55;;;;;;;-1.05;92.96;99989.84;6017640;28;20061;-70
2022/04/01 05:36:12;;;;;;;9.57;3.45;;;;;;;-1.10;92.95;99985.81;6028743;28;20026;-69
2022/04/01 05:39:09;;;;;;;8.00;3.20;;;;;;;-1.16;92.52;99993.97;6023134;28;20038;-69
2022/04/01 05:42:08;;;;;;;9.75;3.78;;;;;;;-1.14;92.00;99994.75;6030849;28;20080;-69
2022/04/01 05:45:04;;;;;;;10.25;3.45;;;;;;;-1.16;91.41;100001.78;6033582;28;20117;-68
2022/04/01 05:48:01;;;;;;;7.22;3.42;;;;;;;-1.17;91.59;100010.53;6041756;28;20038;-69
2022/04/01 05:50:56;;;;;;;6.78;2.67;;;;;;;-1.24;90.90;100008.28;6019236;28;20038;-70
2022/04/01 05:53:52;;;;;;;8.50;3.30;;;;;;;-1.23;90.69;100012.56;6026078;28;20034;-69
2022/04/01 05:56:48;;;;;;;8.65;3.67;;;;;;;-1.30;90.25;100024.22;6022258;28;20101;-70
2022/04/01 05:59:44;;;;;;;6.47;3.08;;;;;;;-1.21;90.37;100025.47;6019688;28;20389;-67
2022/04/01 06:03:21;;;;;;;8.05;3.40;;;;;;;-1.20;89.70;100027.97;6027474;28;20474;-68
2022/04/01 06:06:25;;;;;;;10.60;3.83;;;;;;;-1.18;90.03;100024.44;5964959;28;20055;-69
2022/04/01 06:09:38;;;;;;;9.95;3.08;;;;;;;-0.99;90.40;100023.28;5973467;29;20043;-69
2022/04/01 06:13:25;;;;;;;8.27;3.47;;;;;;;-1.16;89.89;100030.41;6019227;28;20038;-70
2022/04/01 06:16:27;;;;;;;8.38;3.10;;;;;;;-1.16;89.97;100035.59;5971861;29;20609;-69
2022/04/01 06:19:25;;;;;;;5.40;2.65;;;;;;;-1.02;89.39;100033.88;5967699;28;20039;-71
2022/04/01 06:22:22;;;;;;;8.55;2.75;;;;;;;-1.15;89.76;100040.72;6014791;28;20030;-71
2022/04/01 06:25:20;;;;;;;9.32;2.92;;;;;;;-1.09;89.41;100039.53;6019203;28;20092;-70
2022/04/01 06:28:16;;;;;;;7.07;3.30;;;;;;;-1.03;89.24;100047.00;6015663;28;20118;-70
2022/04/01 06:31:12;;;;;;;8.25;3.28;;;;;;;-1.15;89.36;100045.09;6021812;28;20038;-70
2022/04/01 06:34:15;;;;;;;8.40;3.50;;;;;;;-1.26;89.37;100056.94;6020796;28;20393;-70
2022/04/01 06:37:19;;;;;;;9.35;3.47;;;;;;;-1.34;89.39;100056.56;6011284;28;20038;-69
2022/04/01 06:40:17;;;;;;;11.52;3.15;;;;;;;-1.07;89.48;100058.47;6015740;28;20042;-70
2022/04/01 06:43:12;;;;;;;7.88;2.90;;;;;;;-1.12;89.26;100063.97;6023905;28;20084;-69
2022/04/01 06:46:08;;;;;;;7.40;3.53;;;;;;;-1.22;89.12;100061.03;6017036;28;20030;-70
2022/04/01 06:49:08;;;;;;;7.15;2.85;;;;;;;-1.09;89.06;100066.38;6022556;28;20763;-70
2022/04/01 06:52:03;;;;;;;7.97;2.90;;;;;;;-1.08;88.48;100062.00;6018033;28;20367;-68
2022/04/01 06:54:59;;;;;;;6.95;2.53;;;;;;;-0.92;88.04;100060.19;6026688;28;20026;-69
2022/04/01 06:57:54;;;;;;;7.38;3.03;;;;;;;-0.99;87.42;100061.47;6022368;28;21349;-70
2022/04/01 07:00:50;;;;;;;8.63;2.70;;;;;;;-0.90;86.93;100066.16;6025231;28;20038;-69
2022/04/01 07:03:45;;;;;;;7.35;2.85;;;;;;;-0.90;85.47;100069.59;6013673;28;20288;-68
2022/04/01 07:06:41;;;;;;;8.57;2.93;;;;;;;-0.72;84.64;100070.25;6022690;28;20038;-69
2022/04/01 07:09:36;;;;;;;8.75;3.47;;;;;;;-0.63;83.27;100065.34;6016195;28;20042;-70
2022/04/01 07:12:32;;;;;;;8.70;3.57;;;;;;;-0.65;80.92;100071.56;6018258;28;20433;-70
2022/04/01 07:15:27;;;;;;;5.95;2.75;;;;;;;-0.51;80.23;100061.16;6018659;28;20034;-68
2022/04/01 07:18:23;;;;;;;8.97;3.03;;;;;;;-0.49;77.13;100067.09;6017971;28;20192;-69
2022/04/01 07:21:18;;;;;;;6.90;2.40;;;;;;;-0.36;76.46;100075.03;6022210;28;20274;-68
2022/04/01 07:24:13;;;;;;;5.30;2.30;;;;;;;-0.28;76.01;100076.25;6024274;28;20030;-68
2022/04/01 07:27:10;;;;;;;7.77;2.40;;;;;;;-0.22;75.24;100070.63;6025086;28;20069;-68
2022/04/01 07:30:08;;;;;;;5.03;2.35;;;;;;;-0.23;73.58;100073.34;6021692;28;20046;-69
2022/04/01 07:33:03;;;;;;;11.63;2.30;;;;;;;-0.17;72.85;100071.22;6012462;28;20470;-69
2022/04/01 07:35:59;;;;;;;7.47;2.78;;;;;;;-0.07;72.72;100064.50;6013407;28;20241;-70
2022/04/01 07:38:54;;;;;;;5.70;2.47;;;;;;;0.08;73.80;100062.72;6011044;28;20042;-68
2022/04/01 07:41:49;;;;;;;5.90;2.57;;;;;;;0.18;72.71;100062.97;6019745;28;20046;-69
2022/04/01 07:44:45;;;;;;;7.53;2.27;;;;;;;0.29;72.88;100063.97;6018447;28;20100;-69
2022/04/01 07:47:44;;;;;;;6.27;2.20;;;;;;;0.39;73.64;100067.66;6025523;28;20058;-69
2022/04/01 07:50:39;;;;;;;5.90;2.50;;;;;;;0.44;74.16;100057.75;6025002;28;20409;-69
2022/04/01 07:53:35;;;;;;;4.60;1.90;;;;;;;0.55;72.85;100054.47;6022986;28;20030;-70
2022/04/01 07:56:32;;;;;;;7.17;2.80;;;;;;;0.57;73.31;100050.00;6015883;28;20036;-69
2022/04/01 07:59:28;;;;;;;5.57;2.30;;;;;;;0.53;72.08;100041.53;6010615;28;20125;-70
2022/04/01 08:02:24;;;;;;;5.17;1.90;;;;;;;0.60;71.70;100060.22;6026900;28;20484;-68
2022/04/01 08:05:19;;;;;;;5.95;2.75;;;;;;;0.66;72.63;100064.19;6014886;28;20038;-69
2022/04/01 08:08:15;;;;;;;5.60;2.33;;;;;;;0.74;72.65;100065.38;6021216;28;20038;-69
2022/04/01 08:11:10;;;;;;;6.65;2.47;;;;;;;0.82;71.02;100076.13;6019298;28;20481;-69
2022/04/01 08:14:05;;;;;;;7.57;2.80;;;;;;;0.91;70.83;100074.72;6023949;28;20035;-70
2022/04/01 08:17:02;;;;;;;6.18;2.67;;;;;;;0.81;70.13;100071.03;6029712;28;20041;-69
2022/04/01 08:19:57;;;;;;;5.60;2.55;;;;;;;0.81;70.74;100074.50;6030109;28;20039;-70
2022/04/01 08:22:52;;;;;;;8.17;2.77;;;;;;;0.94;70.86;100072.75;6022820;28;20031;-68
2022/04/01 08:25:48;;;;;;;6.00;2.80;;;;;;;0.97;70.70;100080.38;6021983;28;20029;-69
2022/04/01 08:28:43;;;;;;;6.97;2.40;;;;;;;1.12;71.07;100088.94;6019298;28;20035;-69
2022/04/01 08:31:39;;;;;;;6.27;2.40;;;;;;;1.12;69.72;100083.72;6033048;28;20049;-70
2022/04/01 08:34:35;;;;;;;6.22;2.45;;;;;;;1.26;71.61;100080.19;6030107;28;20540;-70
2022/04/01 08:37:30;;;;;;;5.38;1.90;;;;;;;1.37;69.19;100082.91;6033948;28;20048;-72
2022/04/01 08:40:27;;;;;;;6.73;1.73;;;;;;;1.43;69.25;100075.53;6025213;28;20062;-71
2022/04/01 08:43:33;;;;;;;5.40;2.25;;;;;;;1.36;68.24;100086.50;6041768;28;20034;-71
2022/04/01 08:46:28;;;;;;;5.80;2.13;;;;;;;1.28;67.14;100086.97;6015404;28;20042;-71
2022/04/01 08:49:23;;;;;;;7.87;2.70;;;;;;;1.29;66.92;100093.88;6026769;28;20034;-72
2022/04/01 08:52:19;;;;;;;6.20;2.40;;;;;;;1.40;68.10;100082.72;6028929;28;20298;-70
2022/04/01 08:55:14;;;;;;;5.97;2.40;;;;;;;1.68;68.30;100103.41;6031781;28;20042;-70
2022/04/01 08:58:10;;;;;;;5.73;2.10;;;;;;;1.80;68.00;100092.09;6026417;28;20130;-73
2022/04/01 09:01:06;;;;;;;5.72;2.63;;;;;;;1.88;66.52;100105.47;6026553;28;20062;-74
2022/04/01 09:04:23;;;;;;;8.50;2.30;;;;;;;1.83;66.96;100111.97;6026687;28;20490;-72
2022/04/01 09:07:18;;;;;;;4.53;2.35;;;;;;;1.99;64.81;100115.19;6032420;28;21703;-74
2022/04/01 09:10:14;;;;;;;5.60;2.00;;;;;;;2.11;65.08;100096.03;6022972;28;20034;-73
2022/04/01 09:13:10;;;;;;;7.47;2.37;;;;;;;2.28;64.18;100099.13;6032834;28;20070;-73
2022/04/01 09:16:05;;;;;;;5.88;2.38;;;;;;;2.30;64.03;100115.56;6049343;28;20030;-71
2022/04/01 09:19:03;;;;;;;5.67;1.77;;;;;;;2.32;61.41;100110.22;6027874;28;20045;-72
2022/04/01 09:22:17;;;;;;;5.43;2.03;;;;;;;2.24;61.46;100112.53;6019950;28;20125;-74
2022/04/01 09:25:15;;;;;;;5.05;1.98;;;;;;;2.51;64.58;100114.97;6020055;28;20041;-73
2022/04/01 09:28:10;;;;;;;4.25;2.22;;;;;;;2.46;62.51;100120.53;6019973;28;20042;-73
2022/04/01 09:31:09;;;;;;;4.23;2.03;;;;;;;2.46;62.57;100114.47;6023263;28;20397;-72
2022/04/01 09:34:09;;;;;;;6.35;2.22;;;;;;;2.38;62.64;100125.47;6026141;28;20068;-70
2022/04/01 09:37:07;;;;;;;4.45;1.98;;;;;;;2.39;62.17;100116.69;6022403;28;20441;-72
2022/04/01 09:40:03;;;;;;;7.93;1.80;;;;;;;2.42;60.47;100115.66;6028170;28;20474;-71
2022/04/01 09:42:59;;;;;;;6.40;1.98;;;;;;;2.53;64.31;100118.34;6028621;28;20042;-73
2022/04/01 09:45:54;;;;;;;4.63;2.05;;;;;;;2.57;60.51;100119.78;6027631;28;20049;-71
2022/04/01 09:48:49;;;;;;;5.87;1.90;;;;;;;2.64;60.48;100128.84;6049199;28;20038;-74
2022/04/01 09:51:45;;;;;;;3.90;1.80;;;;;;;2.57;59.31;100125.00;6034400;28;20030;-70
2022/04/01 09:54:49;;;;;;;4.40;1.83;;;;;;;2.62;59.05;100125.50;6028185;28;20074;-75
2022/04/01 09:57:44;;;;;;;3.78;1.60;;;;;;;2.72;58.14;100123.88;6051507;28;20183;-70
2022/04/01 10:00:40;;;;;;;4.77;2.10;;;;;;;2.75;58.61;100123.66;6028336;28;20042;-75
2022/04/01 10:03:35;;;;;;;3.03;1.50;;;;;;;3.08;58.63;100115.97;6028328;28;20120;-72
2022/04/01 10:06:32;;;;;;;5.00;1.93;;;;;;;2.83;58.24;100126.56;6027926;28;20045;-73
2022/04/01 10:09:28;;;;;;;4.30;1.25;;;;;;;2.97;57.72;100113.31;6028188;28;20109;-74
2022/04/01 10:12:25;;;;;;;4.03;1.95;;;;;;;2.90;57.29;100117.34;6022836;28;20081;-72
2022/04/01 10:15:21;;;;;;;4.50;1.65;;;;;;;2.87;57.78;100117.56;6039966;28;20044;-73
2022/04/01 10:18:18;;;;;;;4.18;1.92;;;;;;;3.14;58.39;100118.16;6040986;28;20030;-69
2022/04/01 10:21:17;;;;;;;3.22;1.60;;;;;;;3.43;56.86;100119.41;6024416;28;20026;-70
2022/04/01 10:24:32;;;;;;;4.28;1.92;;;;;;;3.62;56.19;100116.22;6027771;28;20069;-71
2022/04/01 10:27:37;;;;;;;6.78;1.63;;;;;;;3.37;56.02;100119.06;6045220;28;20489;-69
2022/04/01 10:30:34;;;;;;;3.10;1.45;;;;;;;3.31;55.76;100111.66;6025111;28;20026;-69
2022/04/01 10:33:35;;;;;;;2.80;1.50;;;;;;;3.35;54.97;100123.56;6027417;28;20109;-70
2022/04/01 10:36:31;;;;;;;3.90;1.52;;;;;;;3.04;54.71;100106.69;6015383;28;20034;-70
2022/04/01 10:39:28;;;;;;;5.40;1.45;;;;;;;3.04;54.13;100124.19;6015335;28;20537;-69
2022/04/01 10:42:30;;;;;;;7.32;1.77;;;;;;;3.03;54.55;100120.72;6022411;28;20433;-69
2022/04/01 10:45:26;;;;;;;4.88;1.88;;;;;;;3.01;55.35;100125.25;6012958;28;20110;-70
2022/04/01 10:51:38;;;;;;;3.85;1.63;;;;;;;2.97;56.66;100135.09;6018785;28;20031;-72
2022/04/01 10:54:35;;;;;;;4.55;1.92;;;;;;;2.91;54.92;100125.06;6020217;28;20038;-69
2022/04/01 10:57:32;;;;;;;4.15;1.80;;;;;;;2.80;54.08;100135.47;6022577;28;21742;-68
2022/04/01 11:00:28;;;;;;;3.92;1.50;;;;;;;2.84;55.17;100123.84;6015046;28;20042;-72
2022/04/01 11:03:24;;;;;;;2.85;1.33;;;;;;;2.89;53.89;100137.44;6023906;28;20033;-70
2022/04/01 11:06:26;;;;;;;4.38;2.10;;;;;;;2.93;53.30;100144.13;6028971;28;20034;-73
2022/04/01 11:09:46;;;;;;;4.70;1.70;;;;;;;2.94;54.14;100139.72;6031937;28;20080;-71
2022/04/01 11:12:51;;;;;;;3.78;1.67;;;;;;;2.95;52.75;100136.16;6025414;28;20061;-70
2022/04/01 11:15:46;;;;;;;5.03;1.77;;;;;;;3.02;52.51;100142.59;6028485;28;20031;-71
2022/04/01 11:19:13;;;;;;;3.83;1.40;;;;;;;3.08;49.98;100152.63;6025684;28;20034;-73
2022/04/01 11:22:35;;;;;;;6.20;1.58;;;;;;;3.19;49.87;100144.00;6024306;28;20080;-73
2022/04/01 11:25:32;;;;;;;4.60;1.23;;;;;;;3.33;49.85;100157.75;6025679;28;20129;-72
2022/04/01 11:28:29;;;;;;;3.80;1.42;;;;;;;3.32;48.22;100165.69;6025485;28;20034;-71
2022/04/01 11:31:24;;;;;;;5.45;1.70;;;;;;;3.39;48.38;100157.28;6023827;28;20432;-70
2022/04/01 11:34:19;;;;;;;5.27;1.50;;;;;;;3.49;48.19;100153.03;6033851;28;20099;-74
2022/04/01 11:37:15;;;;;;;6.60;2.10;;;;;;;3.63;48.47;100159.00;6049265;28;20715;-73
2022/04/01 11:40:10;;;;;;;8.53;1.40;;;;;;;3.77;49.63;100166.69;6032584;28;20094;-69
2022/04/01 11:43:11;;;;;;;4.53;1.75;;;;;;;3.89;46.71;100160.47;6030693;28;20026;-74
2022/04/01 11:46:07;;;;;;;4.18;1.70;;;;;;;3.74;47.64;100172.16;6024276;28;20439;-71
2022/04/01 11:49:02;;;;;;;4.95;1.73;;;;;;;3.80;47.59;100167.28;6024669;28;20165;-71
2022/04/01 11:51:57;;;;;;;4.67;2.00;;;;;;;3.98;47.78;100165.88;6026622;28;20414;-70
2022/04/01 11:54:53;;;;;;;5.13;1.40;;;;;;;4.21;47.84;100164.91;6029033;28;20556;-73
2022/04/01 11:57:49;;;;;;;4.67;1.53;;;;;;;4.13;48.46;100163.88;6049431;28;20033;-71
2022/04/01 12:00:46;;;;;;;4.38;1.55;;;;;;;4.20;48.53;100167.69;6021419;28;20118;-72
2022/04/01 12:03:41;;;;;;;5.82;1.45;;;;;;;4.36;47.60;100162.91;6025004;28;20466;-71
2022/04/01 12:09:57;;;;;;;5.20;1.63;;;;;;;4.83;48.05;100159.13;6046511;28;20284;-72
2022/04/01 12:12:58;;;;;;;5.85;1.42;;;;;;;4.55;45.84;100138.66;6048870;28;20108;-74
2022/04/01 12:15:56;;;;;;;2.92;1.55;;;;;;;4.45;46.77;100138.56;6024766;28;20104;-71
2022/04/01 12:18:51;;;;;;;3.67;1.90;;;;;;;4.47;45.48;100134.03;6026386;28;20026;-71
2022/04/01 12:21:53;;;;;;;1.93;0.93;;;;;;;4.50;45.53;100133.78;6026946;28;20124;-70
2022/04/01 12:24:49;;;;;;;3.28;1.08;;;;;;;4.59;48.01;100137.47;6025730;28;20549;-70
2022/04/01 12:28:02;;;;;;;5.65;1.30;;;;;;;4.51;46.83;100143.31;6018561;28;20062;-71
2022/04/01 12:30:57;;;;;;;2.70;1.25;;;;;;;4.59;46.75;100130.41;6021811;28;20030;-74
2022/04/01 12:33:57;;;;;;;3.03;1.07;;;;;;;4.74;43.89;100126.56;6025615;28;20042;-73
2022/04/01 12:37:14;;;;;;;8.07;1.48;;;;;;;4.78;44.64;100120.09;6025313;28;20030;-72
2022/04/01 12:40:10;;;;;;;6.22;2.20;;;;;;;4.87;44.43;100117.69;6025017;28;20026;-72
2022/04/01 12:43:05;;;;;;;3.88;1.17;;;;;;;4.92;45.04;100121.59;6024496;28;20038;-70
2022/04/01 12:46:04;;;;;;;2.27;0.97;;;;;;;4.71;44.52;100124.19;6025503;28;20096;-71
2022/04/01 12:49:10;;;;;;;7.85;1.90;;;;;;;4.76;45.35;100114.13;6025211;28;20030;-68
2022/04/01 12:52:14;;;;;;;3.35;1.10;;;;;;;4.69;45.62;100105.09;6032182;28;20034;-72
2022/04/01 12:55:22;;;;;;;4.88;1.60;;;;;;;4.90;45.39;100102.50;6029040;28;20038;-70
2022/04/01 12:58:18;;;;;;;7.13;1.50;;;;;;;4.87;45.25;100102.75;6026296;28;20038;-69
2022/04/01 13:01:13;;;;;;;2.85;1.33;;;;;;;5.13;45.90;100103.25;6039745;28;20084;-73
2022/04/01 13:04:16;;;;;;;6.53;1.10;;;;;;;4.97;43.53;100111.56;6053733;28;20042;-70
2022/04/01 13:07:19;;;;;;;4.28;1.50;;;;;;;5.22;44.02;100119.09;6053432;28;20044;-71
2022/04/01 13:10:16;;;;;;;8.05;1.75;;;;;;;5.16;44.04;100118.78;6045188;28;20045;-72
2022/04/01 13:13:20;;;;;;;6.50;1.60;;;;;;;5.40;43.47;100122.00;6033575;28;20042;-73
2022/04/01 13:16:15;;;;;;;6.22;1.30;;;;;;;5.53;42.80;100124.44;6029083;28;20089;-71
2022/04/01 13:19:20;;;;;;;13.43;2.63;;;;;;;5.37;45.09;100127.50;6029048;28;20034;-71
2022/04/01 13:22:15;;;;;;;2.67;1.13;;;;;;;5.34;42.70;100112.00;6028223;28;20057;-69
2022/04/01 13:25:15;;;;;;;7.27;2.47;;;;;;;5.41;44.45;100118.41;6029263;28;20486;-71
2022/04/01 13:28:11;;;;;;;6.03;1.73;;;;;;;5.56;44.27;100119.75;6017875;28;20101;-71
2022/04/01 13:31:06;;;;;;;5.13;1.60;;;;;;;5.43;43.84;100132.28;6026023;28;20548;-71
2022/04/01 13:34:02;;;;;;;3.07;1.33;;;;;;;5.51;43.61;100114.06;6028879;28;20050;-70
2022/04/01 13:36:57;;;;;;;4.75;1.10;;;;;;;5.47;44.50;100117.06;6045123;28;20115;-71
2022/04/01 13:39:53;;;;;;;2.75;1.23;;;;;;;5.72;43.47;100127.19;6049282;28;20523;-71
2022/04/01 13:42:48;;;;;;;4.53;1.30;;;;;;;5.54;43.36;100116.44;6034831;28;20030;-70
2022/04/01 13:45:44;;;;;;;3.05;1.10;;;;;;;5.62;43.97;100114.00;6028698;28;20042;-70
2022/04/01 13:48:39;;;;;;;5.47;1.70;;;;;;;5.58;45.34;100124.88;6028609;28;20116;-69
2022/04/01 13:51:35;;;;;;;10.33;1.20;;;;;;;5.62;45.42;100123.66;6031526;28;20745;-69
2022/04/01 13:54:31;;;;;;;4.43;1.40;;;;;;;5.40;45.17;100132.53;6048577;28;20112;-69
2022/04/01 13:57:26;;;;;;;9.13;2.03;;;;;;;5.26;44.98;100123.16;6019848;28;20500;-70
2022/04/01 14:00:21;;;;;;;3.50;1.20;;;;;;;5.47;46.73;100133.66;6023266;28;20041;-69
2022/04/01 14:03:17;;;;;;;6.60;1.83;;;;;;;5.44;46.77;100120.78;6024209;28;20665;-70
2022/04/01 14:06:12;;;;;;;6.00;2.33;;;;;;;5.25;46.51;100128.50;6028033;28;20272;-70